Weather at Agia Anna Heliport

Public forecast

Using degrees Celsius for public forecast. Weather courtesy of forecast.io.

Closest aviation weather report (METAR) to Agia Anna Heliport

Closest report is Limnos Airport, 45.2 nm (83.8 km) ESE.

2024/07/18 23:50 (retrieved 59 minutes ago)

LGLM 182350Z 03009KT CAVOK 28/19 Q1010

Closest aviation forecast (TAF) to Agia Anna Heliport

Forecast is more than 6 hours old.

Closest forecast is Graf Ignatievo Air Base, 130.4 nm (241.5 km) N.

2024/07/18 17:00 (retrieved 8 hours ago)

TAF LBPG 181600Z 1817/1905 09008G14KT 060V130 9999 SCT100 BECMG 1819/1821 VRB05KT BY LBSA